sensor_id;sensor_type;location;lat;lon;timestamp;P1;durP1;ratioP1;P2;durP2;ratioP2
43150;SDS011;28755;51.478;5.702;2022-12-15T00:02:43;36.65;;;20.27;;
43150;SDS011;28755;51.478;5.702;2022-12-15T00:05:27;32.72;;;20.17;;
43150;SDS011;28755;51.478;5.702;2022-12-15T00:08:11;36.13;;;21.40;;
43150;SDS011;28755;51.478;5.702;2022-12-15T00:10:55;34.17;;;19.98;;
43150;SDS011;28755;51.478;5.702;2022-12-15T00:13:40;35.80;;;20.75;;
43150;SDS011;28755;51.478;5.702;2022-12-15T00:16:24;37.35;;;21.38;;
43150;SDS011;28755;51.478;5.702;2022-12-15T00:19:08;38.03;;;21.25;;
43150;SDS011;28755;51.478;5.702;2022-12-15T00:21:52;36.67;;;20.67;;
43150;SDS011;28755;51.478;5.702;2022-12-15T00:24:36;37.90;;;21.23;;
43150;SDS011;28755;51.478;5.702;2022-12-15T00:27:20;37.30;;;20.45;;
43150;SDS011;28755;51.478;5.702;2022-12-15T00:30:05;43.13;;;21.42;;
43150;SDS011;28755;51.478;5.702;2022-12-15T00:32:50;35.20;;;20.60;;
43150;SDS011;28755;51.478;5.702;2022-12-15T00:35:34;37.28;;;21.48;;
43150;SDS011;28755;51.478;5.702;2022-12-15T00:38:18;37.03;;;20.63;;
43150;SDS011;28755;51.478;5.702;2022-12-15T00:41:02;35.40;;;21.65;;
43150;SDS011;28755;51.478;5.702;2022-12-15T00:43:29;34.85;;;20.92;;
43150;SDS011;28755;51.478;5.702;2022-12-15T00:45:56;37.47;;;20.38;;
43150;SDS011;28755;51.478;5.702;2022-12-15T00:48:40;40.17;;;21.85;;
43150;SDS011;28755;51.478;5.702;2022-12-15T00:51:06;36.00;;;21.35;;
43150;SDS011;28755;51.478;5.702;2022-12-15T00:53:32;39.33;;;21.20;;
43150;SDS011;28755;51.478;5.702;2022-12-15T00:56:16;40.72;;;21.70;;
43150;SDS011;28755;51.478;5.702;2022-12-15T00:59:00;38.08;;;22.10;;
43150;SDS011;28755;51.478;5.702;2022-12-15T01:01:44;36.85;;;22.45;;
43150;SDS011;28755;51.478;5.702;2022-12-15T01:04:28;39.35;;;23.08;;
43150;SDS011;28755;51.478;5.702;2022-12-15T01:07:12;41.22;;;23.50;;
43150;SDS011;28755;51.478;5.702;2022-12-15T01:09:57;54.83;;;24.02;;
43150;SDS011;28755;51.478;5.702;2022-12-15T01:12:42;47.38;;;25.02;;
43150;SDS011;28755;51.478;5.702;2022-12-15T01:15:27;46.15;;;25.35;;
43150;SDS011;28755;51.478;5.702;2022-12-15T01:18:11;43.63;;;24.10;;
43150;SDS011;28755;51.478;5.702;2022-12-15T01:20:56;42.38;;;24.20;;
43150;SDS011;28755;51.478;5.702;2022-12-15T01:23:22;40.95;;;24.23;;
43150;SDS011;28755;51.478;5.702;2022-12-15T01:25:49;48.92;;;24.52;;
43150;SDS011;28755;51.478;5.702;2022-12-15T01:28:18;45.75;;;25.00;;
43150;SDS011;28755;51.478;5.702;2022-12-15T01:30:45;42.08;;;25.27;;
43150;SDS011;28755;51.478;5.702;2022-12-15T01:33:11;41.47;;;25.15;;
43150;SDS011;28755;51.478;5.702;2022-12-15T01:35:37;43.65;;;24.83;;
43150;SDS011;28755;51.478;5.702;2022-12-15T01:38:03;47.08;;;25.52;;
43150;SDS011;28755;51.478;5.702;2022-12-15T01:40:29;46.58;;;26.30;;
43150;SDS011;28755;51.478;5.702;2022-12-15T01:45:59;45.10;;;25.38;;
43150;SDS011;28755;51.478;5.702;2022-12-15T01:50:57;48.78;;;25.48;;
43150;SDS011;28755;51.478;5.702;2022-12-15T01:53:27;43.90;;;25.95;;
43150;SDS011;28755;51.478;5.702;2022-12-15T01:55:57;41.78;;;25.80;;
43150;SDS011;28755;51.478;5.702;2022-12-15T01:58:23;42.22;;;25.10;;
43150;SDS011;28755;51.478;5.702;2022-12-15T02:00:49;41.83;;;24.92;;
43150;SDS011;28755;51.478;5.702;2022-12-15T02:03:15;45.83;;;25.25;;
43150;SDS011;28755;51.478;5.702;2022-12-15T02:05:41;44.58;;;25.50;;
43150;SDS011;28755;51.478;5.702;2022-12-15T02:08:07;44.85;;;25.27;;
43150;SDS011;28755;51.478;5.702;2022-12-15T02:10:40;45.05;;;25.05;;
43150;SDS011;28755;51.478;5.702;2022-12-15T02:13:24;46.50;;;24.38;;
43150;SDS011;28755;51.478;5.702;2022-12-15T02:17:00;43.60;;;23.98;;
43150;SDS011;28755;51.478;5.702;2022-12-15T02:21:39;51.70;;;24.73;;
43150;SDS011;28755;51.478;5.702;2022-12-15T02:24:18;50.42;;;25.13;;
43150;SDS011;28755;51.478;5.702;2022-12-15T02:33:00;39.15;;;23.45;;
43150;SDS011;28755;51.478;5.702;2022-12-15T02:35:37;40.55;;;23.98;;
43150;SDS011;28755;51.478;5.702;2022-12-15T02:38:10;40.58;;;23.38;;
43150;SDS011;28755;51.478;5.702;2022-12-15T02:40:36;46.40;;;25.25;;
43150;SDS011;28755;51.478;5.702;2022-12-15T02:43:02;40.85;;;24.02;;
43150;SDS011;28755;51.478;5.702;2022-12-15T02:45:54;40.35;;;24.27;;
43150;SDS011;28755;51.478;5.702;2022-12-15T02:51:21;42.45;;;24.27;;
43150;SDS011;28755;51.478;5.702;2022-12-15T02:59:23;41.50;;;24.35;;
43150;SDS011;28755;51.478;5.702;2022-12-15T03:02:01;44.58;;;23.67;;
43150;SDS011;28755;51.478;5.702;2022-12-15T03:04:29;41.97;;;24.15;;
43150;SDS011;28755;51.478;5.702;2022-12-15T03:06:59;44.63;;;25.75;;
43150;SDS011;28755;51.478;5.702;2022-12-15T03:09:28;44.58;;;25.38;;
43150;SDS011;28755;51.478;5.702;2022-12-15T03:11:54;50.35;;;25.45;;
43150;SDS011;28755;51.478;5.702;2022-12-15T03:14:20;44.95;;;26.15;;
43150;SDS011;28755;51.478;5.702;2022-12-15T03:16:45;43.42;;;26.33;;
43150;SDS011;28755;51.478;5.702;2022-12-15T03:19:11;44.90;;;26.05;;
43150;SDS011;28755;51.478;5.702;2022-12-15T03:21:36;51.55;;;26.63;;
43150;SDS011;28755;51.478;5.702;2022-12-15T03:24:02;48.75;;;26.10;;
43150;SDS011;28755;51.478;5.702;2022-12-15T03:26:28;43.72;;;25.23;;
43150;SDS011;28755;51.478;5.702;2022-12-15T03:28:53;43.47;;;25.70;;
43150;SDS011;28755;51.478;5.702;2022-12-15T03:31:19;50.83;;;27.42;;
43150;SDS011;28755;51.478;5.702;2022-12-15T03:33:45;45.50;;;27.42;;
43150;SDS011;28755;51.478;5.702;2022-12-15T03:36:10;50.40;;;27.58;;
43150;SDS011;28755;51.478;5.702;2022-12-15T03:38:36;49.42;;;28.30;;
43150;SDS011;28755;51.478;5.702;2022-12-15T03:41:01;47.38;;;27.63;;
43150;SDS011;28755;51.478;5.702;2022-12-15T03:43:27;50.05;;;26.88;;
43150;SDS011;28755;51.478;5.702;2022-12-15T03:45:53;53.17;;;28.60;;
43150;SDS011;28755;51.478;5.702;2022-12-15T03:48:18;57.60;;;28.77;;
43150;SDS011;28755;51.478;5.702;2022-12-15T03:50:44;46.90;;;27.90;;
43150;SDS011;28755;51.478;5.702;2022-12-15T03:53:11;51.20;;;29.08;;
43150;SDS011;28755;51.478;5.702;2022-12-15T03:55:37;48.75;;;28.52;;
43150;SDS011;28755;51.478;5.702;2022-12-15T03:58:02;48.05;;;27.77;;
43150;SDS011;28755;51.478;5.702;2022-12-15T04:00:28;46.00;;;26.60;;
43150;SDS011;28755;51.478;5.702;2022-12-15T04:02:54;49.20;;;27.85;;
43150;SDS011;28755;51.478;5.702;2022-12-15T04:05:24;48.55;;;28.33;;
43150;SDS011;28755;51.478;5.702;2022-12-15T04:07:54;49.67;;;29.40;;
43150;SDS011;28755;51.478;5.702;2022-12-15T04:12:47;48.80;;;27.45;;
43150;SDS011;28755;51.478;5.702;2022-12-15T04:15:15;50.67;;;28.02;;
43150;SDS011;28755;51.478;5.702;2022-12-15T04:17:41;45.58;;;27.95;;
43150;SDS011;28755;51.478;5.702;2022-12-15T04:20:07;48.35;;;27.25;;
43150;SDS011;28755;51.478;5.702;2022-12-15T04:22:33;48.63;;;28.23;;
43150;SDS011;28755;51.478;5.702;2022-12-15T04:25:04;45.30;;;27.73;;
43150;SDS011;28755;51.478;5.702;2022-12-15T04:27:49;47.35;;;27.40;;
43150;SDS011;28755;51.478;5.702;2022-12-15T04:30:33;50.75;;;27.98;;
43150;SDS011;28755;51.478;5.702;2022-12-15T04:33:18;45.05;;;26.85;;
43150;SDS011;28755;51.478;5.702;2022-12-15T04:36:04;46.03;;;27.00;;
43150;SDS011;28755;51.478;5.702;2022-12-15T04:38:50;49.10;;;26.42;;
43150;SDS011;28755;51.478;5.702;2022-12-15T04:41:34;49.97;;;28.10;;
43150;SDS011;28755;51.478;5.702;2022-12-15T04:44:18;45.67;;;27.95;;
43150;SDS011;28755;51.478;5.702;2022-12-15T04:47:03;51.88;;;28.98;;
43150;SDS011;28755;51.478;5.702;2022-12-15T04:49:47;58.58;;;29.83;;
43150;SDS011;28755;51.478;5.702;2022-12-15T04:52:31;53.78;;;29.52;;
43150;SDS011;28755;51.478;5.702;2022-12-15T04:55:15;51.95;;;29.67;;
43150;SDS011;28755;51.478;5.702;2022-12-15T04:58:03;48.05;;;29.60;;
43150;SDS011;28755;51.478;5.702;2022-12-15T05:00:48;51.80;;;29.60;;
43150;SDS011;28755;51.478;5.702;2022-12-15T05:03:32;54.30;;;29.83;;
43150;SDS011;28755;51.478;5.702;2022-12-15T05:06:16;48.45;;;29.45;;
43150;SDS011;28755;51.478;5.702;2022-12-15T05:09:00;52.50;;;29.35;;
43150;SDS011;28755;51.478;5.702;2022-12-15T05:11:44;50.85;;;29.52;;
43150;SDS011;28755;51.478;5.702;2022-12-15T05:14:28;50.75;;;29.55;;
43150;SDS011;28755;51.478;5.702;2022-12-15T05:17:13;53.38;;;31.35;;
43150;SDS011;28755;51.478;5.702;2022-12-15T05:19:57;55.67;;;31.42;;
43150;SDS011;28755;51.478;5.702;2022-12-15T05:22:41;48.55;;;28.50;;
43150;SDS011;28755;51.478;5.702;2022-12-15T05:25:25;53.45;;;28.10;;
43150;SDS011;28755;51.478;5.702;2022-12-15T05:28:09;54.13;;;28.40;;
43150;SDS011;28755;51.478;5.702;2022-12-15T05:30:53;53.55;;;29.42;;
43150;SDS011;28755;51.478;5.702;2022-12-15T05:33:37;47.72;;;27.65;;
43150;SDS011;28755;51.478;5.702;2022-12-15T05:36:02;49.88;;;28.45;;
43150;SDS011;28755;51.478;5.702;2022-12-15T05:38:28;49.83;;;28.05;;
43150;SDS011;28755;51.478;5.702;2022-12-15T05:40:57;51.75;;;27.95;;
43150;SDS011;28755;51.478;5.702;2022-12-15T05:43:24;51.53;;;28.08;;
43150;SDS011;28755;51.478;5.702;2022-12-15T05:45:50;50.25;;;27.70;;
43150;SDS011;28755;51.478;5.702;2022-12-15T05:48:15;46.08;;;27.70;;
43150;SDS011;28755;51.478;5.702;2022-12-15T05:50:41;50.47;;;27.67;;
43150;SDS011;28755;51.478;5.702;2022-12-15T05:53:06;47.40;;;28.10;;
43150;SDS011;28755;51.478;5.702;2022-12-15T05:55:32;48.08;;;28.35;;
43150;SDS011;28755;51.478;5.702;2022-12-15T05:57:57;48.08;;;28.60;;
43150;SDS011;28755;51.478;5.702;2022-12-15T06:00:23;45.80;;;27.73;;
43150;SDS011;28755;51.478;5.702;2022-12-15T06:02:49;52.40;;;28.75;;
43150;SDS011;28755;51.478;5.702;2022-12-15T06:05:14;53.80;;;29.83;;
43150;SDS011;28755;51.478;5.702;2022-12-15T06:07:40;57.55;;;30.85;;
43150;SDS011;28755;51.478;5.702;2022-12-15T06:10:06;53.50;;;30.45;;
43150;SDS011;28755;51.478;5.702;2022-12-15T06:12:32;49.88;;;30.33;;
43150;SDS011;28755;51.478;5.702;2022-12-15T06:14:57;51.88;;;30.25;;
43150;SDS011;28755;51.478;5.702;2022-12-15T06:17:23;53.30;;;30.02;;
43150;SDS011;28755;51.478;5.702;2022-12-15T06:19:48;58.75;;;29.80;;
43150;SDS011;28755;51.478;5.702;2022-12-15T06:22:14;57.28;;;31.73;;
43150;SDS011;28755;51.478;5.702;2022-12-15T06:24:40;56.42;;;29.88;;
43150;SDS011;28755;51.478;5.702;2022-12-15T06:27:05;57.53;;;29.38;;
43150;SDS011;28755;51.478;5.702;2022-12-15T06:29:31;54.33;;;29.35;;
43150;SDS011;28755;51.478;5.702;2022-12-15T06:31:56;55.30;;;30.88;;
43150;SDS011;28755;51.478;5.702;2022-12-15T06:34:22;55.42;;;30.50;;
43150;SDS011;28755;51.478;5.702;2022-12-15T06:36:47;51.78;;;31.25;;
43150;SDS011;28755;51.478;5.702;2022-12-15T06:39:14;57.00;;;32.33;;
43150;SDS011;28755;51.478;5.702;2022-12-15T06:41:41;58.15;;;32.58;;
43150;SDS011;28755;51.478;5.702;2022-12-15T06:44:10;51.97;;;30.85;;
43150;SDS011;28755;51.478;5.702;2022-12-15T06:46:37;58.13;;;32.70;;
43150;SDS011;28755;51.478;5.702;2022-12-15T06:49:03;58.63;;;32.25;;
43150;SDS011;28755;51.478;5.702;2022-12-15T06:51:29;51.63;;;31.85;;
43150;SDS011;28755;51.478;5.702;2022-12-15T06:53:55;54.97;;;32.22;;
43150;SDS011;28755;51.478;5.702;2022-12-15T06:56:25;50.92;;;30.95;;
43150;SDS011;28755;51.478;5.702;2022-12-15T06:58:53;52.00;;;30.60;;
43150;SDS011;28755;51.478;5.702;2022-12-15T07:01:22;60.17;;;31.45;;
43150;SDS011;28755;51.478;5.702;2022-12-15T07:03:48;60.78;;;30.45;;
43150;SDS011;28755;51.478;5.702;2022-12-15T07:06:15;47.33;;;28.92;;
43150;SDS011;28755;51.478;5.702;2022-12-15T07:08:41;54.55;;;30.15;;
43150;SDS011;28755;51.478;5.702;2022-12-15T07:11:09;52.53;;;28.20;;
43150;SDS011;28755;51.478;5.702;2022-12-15T07:13:36;55.50;;;31.77;;
43150;SDS011;28755;51.478;5.702;2022-12-15T07:16:03;56.75;;;30.23;;
43150;SDS011;28755;51.478;5.702;2022-12-15T07:18:30;51.22;;;30.15;;
43150;SDS011;28755;51.478;5.702;2022-12-15T07:21:00;50.88;;;30.88;;
43150;SDS011;28755;51.478;5.702;2022-12-15T07:23:28;52.35;;;29.17;;
43150;SDS011;28755;51.478;5.702;2022-12-15T07:25:53;58.35;;;30.17;;
43150;SDS011;28755;51.478;5.702;2022-12-15T07:28:19;54.15;;;30.35;;
43150;SDS011;28755;51.478;5.702;2022-12-15T07:30:45;56.03;;;30.85;;
43150;SDS011;28755;51.478;5.702;2022-12-15T07:33:10;55.50;;;29.45;;
43150;SDS011;28755;51.478;5.702;2022-12-15T07:35:36;59.15;;;30.33;;
43150;SDS011;28755;51.478;5.702;2022-12-15T07:38:04;51.58;;;29.30;;
43150;SDS011;28755;51.478;5.702;2022-12-15T07:40:31;54.35;;;31.30;;
43150;SDS011;28755;51.478;5.702;2022-12-15T07:42:57;53.75;;;31.65;;
43150;SDS011;28755;51.478;5.702;2022-12-15T07:45:22;54.60;;;30.45;;
43150;SDS011;28755;51.478;5.702;2022-12-15T07:47:48;61.75;;;31.00;;
43150;SDS011;28755;51.478;5.702;2022-12-15T07:50:15;53.75;;;30.23;;
43150;SDS011;28755;51.478;5.702;2022-12-15T07:52:41;54.08;;;29.33;;
43150;SDS011;28755;51.478;5.702;2022-12-15T07:55:07;60.38;;;29.70;;
43150;SDS011;28755;51.478;5.702;2022-12-15T07:57:33;57.22;;;29.58;;
43150;SDS011;28755;51.478;5.702;2022-12-15T07:59:58;54.58;;;30.67;;
43150;SDS011;28755;51.478;5.702;2022-12-15T08:02:24;54.42;;;29.42;;
43150;SDS011;28755;51.478;5.702;2022-12-15T08:04:49;56.08;;;30.95;;
43150;SDS011;28755;51.478;5.702;2022-12-15T08:07:15;59.80;;;30.58;;
43150;SDS011;28755;51.478;5.702;2022-12-15T08:09:41;58.45;;;29.05;;
43150;SDS011;28755;51.478;5.702;2022-12-15T08:12:06;62.97;;;29.95;;
43150;SDS011;28755;51.478;5.702;2022-12-15T08:14:32;56.40;;;29.55;;
43150;SDS011;28755;51.478;5.702;2022-12-15T08:16:57;51.88;;;28.48;;
43150;SDS011;28755;51.478;5.702;2022-12-15T08:19:23;59.55;;;27.90;;
43150;SDS011;28755;51.478;5.702;2022-12-15T08:21:49;53.03;;;28.67;;
43150;SDS011;28755;51.478;5.702;2022-12-15T08:24:14;52.67;;;27.95;;
43150;SDS011;28755;51.478;5.702;2022-12-15T08:26:41;46.47;;;27.88;;
43150;SDS011;28755;51.478;5.702;2022-12-15T08:29:10;50.40;;;27.20;;
43150;SDS011;28755;51.478;5.702;2022-12-15T08:31:36;49.72;;;27.08;;
43150;SDS011;28755;51.478;5.702;2022-12-15T08:34:02;50.85;;;27.73;;
43150;SDS011;28755;51.478;5.702;2022-12-15T08:36:29;44.72;;;25.48;;
43150;SDS011;28755;51.478;5.702;2022-12-15T08:38:56;46.70;;;26.05;;
43150;SDS011;28755;51.478;5.702;2022-12-15T08:41:23;48.95;;;25.23;;
43150;SDS011;28755;51.478;5.702;2022-12-15T08:43:51;50.65;;;25.05;;
43150;SDS011;28755;51.478;5.702;2022-12-15T08:46:18;46.13;;;24.45;;
43150;SDS011;28755;51.478;5.702;2022-12-15T08:48:46;46.15;;;24.80;;
43150;SDS011;28755;51.478;5.702;2022-12-15T08:51:12;46.47;;;24.88;;
43150;SDS011;28755;51.478;5.702;2022-12-15T08:53:38;46.08;;;24.42;;
43150;SDS011;28755;51.478;5.702;2022-12-15T08:56:04;44.35;;;24.40;;
43150;SDS011;28755;51.478;5.702;2022-12-15T08:58:32;44.33;;;21.95;;
43150;SDS011;28755;51.478;5.702;2022-12-15T09:01:01;36.53;;;22.00;;
43150;SDS011;28755;51.478;5.702;2022-12-15T09:03:28;41.15;;;22.20;;
43150;SDS011;28755;51.478;5.702;2022-12-15T09:05:54;37.67;;;21.67;;
43150;SDS011;28755;51.478;5.702;2022-12-15T09:08:21;40.90;;;23.42;;
43150;SDS011;28755;51.478;5.702;2022-12-15T09:10:48;40.55;;;23.02;;
43150;SDS011;28755;51.478;5.702;2022-12-15T09:13:14;50.78;;;23.85;;
43150;SDS011;28755;51.478;5.702;2022-12-15T09:15:39;42.88;;;23.75;;
43150;SDS011;28755;51.478;5.702;2022-12-15T09:18:07;42.00;;;23.90;;
43150;SDS011;28755;51.478;5.702;2022-12-15T09:20:33;49.45;;;25.30;;
43150;SDS011;28755;51.478;5.702;2022-12-15T09:22:58;43.53;;;22.50;;
43150;SDS011;28755;51.478;5.702;2022-12-15T09:25:24;41.28;;;23.13;;
43150;SDS011;28755;51.478;5.702;2022-12-15T09:27:49;40.22;;;23.60;;
43150;SDS011;28755;51.478;5.702;2022-12-15T09:30:15;40.47;;;24.40;;
43150;SDS011;28755;51.478;5.702;2022-12-15T09:32:41;37.03;;;24.33;;
43150;SDS011;28755;51.478;5.702;2022-12-15T09:35:06;37.78;;;23.48;;
43150;SDS011;28755;51.478;5.702;2022-12-15T09:37:32;38.55;;;23.55;;
43150;SDS011;28755;51.478;5.702;2022-12-15T09:39:57;41.55;;;23.30;;
43150;SDS011;28755;51.478;5.702;2022-12-15T09:42:25;41.58;;;23.95;;
43150;SDS011;28755;51.478;5.702;2022-12-15T09:45:13;39.38;;;23.73;;
43150;SDS011;28755;51.478;5.702;2022-12-15T09:50:11;44.13;;;23.65;;
43150;SDS011;28755;51.478;5.702;2022-12-15T09:52:49;38.58;;;23.42;;
43150;SDS011;28755;51.478;5.702;2022-12-15T09:55:18;38.20;;;23.50;;
43150;SDS011;28755;51.478;5.702;2022-12-15T09:57:50;38.28;;;22.27;;
43150;SDS011;28755;51.478;5.702;2022-12-15T10:00:19;36.05;;;22.50;;
43150;SDS011;28755;51.478;5.702;2022-12-15T10:05:56;37.30;;;22.88;;
43150;SDS011;28755;51.478;5.702;2022-12-15T10:08:39;42.38;;;22.35;;
43150;SDS011;28755;51.478;5.702;2022-12-15T10:11:19;40.85;;;23.77;;
43150;SDS011;28755;51.478;5.702;2022-12-15T10:16:46;38.65;;;23.63;;
43150;SDS011;28755;51.478;5.702;2022-12-15T10:22:12;39.72;;;23.83;;
43150;SDS011;28755;51.478;5.702;2022-12-15T10:24:40;38.55;;;23.83;;
43150;SDS011;28755;51.478;5.702;2022-12-15T10:27:11;37.30;;;23.83;;
43150;SDS011;28755;51.478;5.702;2022-12-15T10:30:06;33.83;;;22.52;;
43150;SDS011;28755;51.478;5.702;2022-12-15T10:32:43;35.40;;;22.98;;
43150;SDS011;28755;51.478;5.702;2022-12-15T10:35:25;39.22;;;24.17;;
43150;SDS011;28755;51.478;5.702;2022-12-15T10:38:02;34.85;;;23.35;;
43150;SDS011;28755;51.478;5.702;2022-12-15T10:40:43;41.38;;;24.25;;
43150;SDS011;28755;51.478;5.702;2022-12-15T10:48:28;34.53;;;23.17;;
43150;SDS011;28755;51.478;5.702;2022-12-15T10:53:44;40.85;;;24.90;;
43150;SDS011;28755;51.478;5.702;2022-12-15T10:56:14;40.03;;;24.20;;
43150;SDS011;28755;51.478;5.702;2022-12-15T10:58:51;38.25;;;23.58;;
43150;SDS011;28755;51.478;5.702;2022-12-15T11:01:20;41.42;;;24.63;;
43150;SDS011;28755;51.478;5.702;2022-12-15T11:06:25;32.83;;;22.08;;
43150;SDS011;28755;51.478;5.702;2022-12-15T11:08:57;36.60;;;22.90;;
43150;SDS011;28755;51.478;5.702;2022-12-15T11:11:46;38.83;;;24.52;;
43150;SDS011;28755;51.478;5.702;2022-12-15T11:14:40;40.70;;;24.42;;
43150;SDS011;28755;51.478;5.702;2022-12-15T11:17:18;34.90;;;23.73;;
43150;SDS011;28755;51.478;5.702;2022-12-15T11:19:59;36.38;;;23.05;;
43150;SDS011;28755;51.478;5.702;2022-12-15T11:22:36;41.67;;;24.38;;
43150;SDS011;28755;51.478;5.702;2022-12-15T11:25:24;32.88;;;23.52;;
43150;SDS011;28755;51.478;5.702;2022-12-15T11:28:01;39.05;;;23.55;;
43150;SDS011;28755;51.478;5.702;2022-12-15T11:30:37;45.70;;;24.00;;
43150;SDS011;28755;51.478;5.702;2022-12-15T11:33:11;44.05;;;23.98;;
43150;SDS011;28755;51.478;5.702;2022-12-15T11:40:55;40.70;;;22.88;;
43150;SDS011;28755;51.478;5.702;2022-12-15T11:46:28;33.30;;;22.42;;
43150;SDS011;28755;51.478;5.702;2022-12-15T11:54:52;33.72;;;23.13;;
43150;SDS011;28755;51.478;5.702;2022-12-15T11:57:29;30.42;;;21.98;;
43150;SDS011;28755;51.478;5.702;2022-12-15T12:00:25;31.50;;;22.08;;
43150;SDS011;28755;51.478;5.702;2022-12-15T12:03:03;28.65;;;22.08;;
43150;SDS011;28755;51.478;5.702;2022-12-15T12:05:58;34.65;;;23.65;;
43150;SDS011;28755;51.478;5.702;2022-12-15T12:08:34;34.58;;;23.23;;
43150;SDS011;28755;51.478;5.702;2022-12-15T12:11:14;38.10;;;22.70;;
43150;SDS011;28755;51.478;5.702;2022-12-15T12:16:23;37.15;;;24.05;;
43150;SDS011;28755;51.478;5.702;2022-12-15T12:18:56;34.20;;;23.00;;
43150;SDS011;28755;51.478;5.702;2022-12-15T12:21:37;35.47;;;23.17;;
43150;SDS011;28755;51.478;5.702;2022-12-15T12:24:11;33.22;;;22.63;;
43150;SDS011;28755;51.478;5.702;2022-12-15T12:27:32;35.08;;;22.88;;
43150;SDS011;28755;51.478;5.702;2022-12-15T12:29:45;31.58;;;22.65;;
43150;SDS011;28755;51.478;5.702;2022-12-15T12:32:38;32.58;;;22.05;;
43150;SDS011;28755;51.478;5.702;2022-12-15T12:35:22;32.58;;;21.90;;
43150;SDS011;28755;51.478;5.702;2022-12-15T12:37:58;30.85;;;21.67;;
43150;SDS011;28755;51.478;5.702;2022-12-15T12:42:59;32.20;;;20.88;;
43150;SDS011;28755;51.478;5.702;2022-12-15T12:45:48;32.83;;;20.92;;
43150;SDS011;28755;51.478;5.702;2022-12-15T12:48:13;31.45;;;21.25;;
43150;SDS011;28755;51.478;5.702;2022-12-15T12:50:49;27.80;;;21.00;;
43150;SDS011;28755;51.478;5.702;2022-12-15T12:53:35;28.65;;;20.83;;
43150;SDS011;28755;51.478;5.702;2022-12-15T12:56:00;29.42;;;21.15;;
43150;SDS011;28755;51.478;5.702;2022-12-15T12:58:33;29.35;;;20.98;;
43150;SDS011;28755;51.478;5.702;2022-12-15T13:03:40;27.77;;;21.05;;
43150;SDS011;28755;51.478;5.702;2022-12-15T13:09:19;29.48;;;20.80;;
43150;SDS011;28755;51.478;5.702;2022-12-15T13:14:18;27.13;;;21.05;;
43150;SDS011;28755;51.478;5.702;2022-12-15T13:16:44;31.40;;;21.58;;
43150;SDS011;28755;51.478;5.702;2022-12-15T13:19:12;31.58;;;21.35;;
43150;SDS011;28755;51.478;5.702;2022-12-15T13:27:10;33.15;;;21.73;;
43150;SDS011;28755;51.478;5.702;2022-12-15T13:32:40;36.17;;;23.75;;
43150;SDS011;28755;51.478;5.702;2022-12-15T13:37:56;38.88;;;23.30;;
43150;SDS011;28755;51.478;5.702;2022-12-15T13:48:00;37.70;;;23.63;;
43150;SDS011;28755;51.478;5.702;2022-12-15T13:51:09;33.78;;;22.85;;
43150;SDS011;28755;51.478;5.702;2022-12-15T13:53:47;36.23;;;23.17;;
43150;SDS011;28755;51.478;5.702;2022-12-15T13:56:24;40.75;;;24.35;;
43150;SDS011;28755;51.478;5.702;2022-12-15T13:59:04;36.78;;;23.23;;
43150;SDS011;28755;51.478;5.702;2022-12-15T14:01:38;35.53;;;22.90;;
43150;SDS011;28755;51.478;5.702;2022-12-15T14:04:13;36.45;;;22.80;;
43150;SDS011;28755;51.478;5.702;2022-12-15T14:06:54;39.08;;;23.92;;
43150;SDS011;28755;51.478;5.702;2022-12-15T14:09:32;37.13;;;23.58;;
43150;SDS011;28755;51.478;5.702;2022-12-15T14:12:00;34.17;;;22.50;;
43150;SDS011;28755;51.478;5.702;2022-12-15T14:14:28;36.55;;;23.77;;
43150;SDS011;28755;51.478;5.702;2022-12-15T14:16:58;42.90;;;26.05;;
43150;SDS011;28755;51.478;5.702;2022-12-15T14:19:39;41.90;;;24.77;;
43150;SDS011;28755;51.478;5.702;2022-12-15T14:24:47;40.45;;;25.75;;
43150;SDS011;28755;51.478;5.702;2022-12-15T14:27:47;37.40;;;24.73;;
43150;SDS011;28755;51.478;5.702;2022-12-15T14:32:49;40.60;;;25.00;;
43150;SDS011;28755;51.478;5.702;2022-12-15T14:38:01;37.67;;;23.70;;
43150;SDS011;28755;51.478;5.702;2022-12-15T14:40:30;37.72;;;24.40;;
43150;SDS011;28755;51.478;5.702;2022-12-15T14:42:59;43.90;;;25.55;;
43150;SDS011;28755;51.478;5.702;2022-12-15T14:45:26;43.53;;;25.40;;
43150;SDS011;28755;51.478;5.702;2022-12-15T14:47:59;45.30;;;25.48;;
43150;SDS011;28755;51.478;5.702;2022-12-15T14:50:30;42.15;;;25.95;;
43150;SDS011;28755;51.478;5.702;2022-12-15T14:53:16;43.63;;;26.77;;
43150;SDS011;28755;51.478;5.702;2022-12-15T14:55:43;46.45;;;25.60;;
43150;SDS011;28755;51.478;5.702;2022-12-15T14:58:30;45.28;;;25.67;;
43150;SDS011;28755;51.478;5.702;2022-12-15T15:00:59;45.28;;;25.00;;
43150;SDS011;28755;51.478;5.702;2022-12-15T15:03:36;44.72;;;26.20;;
43150;SDS011;28755;51.478;5.702;2022-12-15T15:06:04;43.67;;;25.38;;
43150;SDS011;28755;51.478;5.702;2022-12-15T15:08:47;45.03;;;26.70;;
43150;SDS011;28755;51.478;5.702;2022-12-15T15:13:54;43.50;;;26.83;;
43150;SDS011;28755;51.478;5.702;2022-12-15T15:16:21;47.58;;;27.38;;
43150;SDS011;28755;51.478;5.702;2022-12-15T15:18:48;43.17;;;26.02;;
43150;SDS011;28755;51.478;5.702;2022-12-15T15:21:17;44.38;;;25.95;;
43150;SDS011;28755;51.478;5.702;2022-12-15T15:26:26;46.22;;;26.52;;
43150;SDS011;28755;51.478;5.702;2022-12-15T15:28:52;52.00;;;27.00;;
43150;SDS011;28755;51.478;5.702;2022-12-15T15:31:26;44.55;;;25.92;;
43150;SDS011;28755;51.478;5.702;2022-12-15T15:33:52;48.00;;;27.20;;
43150;SDS011;28755;51.478;5.702;2022-12-15T15:36:20;48.28;;;27.02;;
43150;SDS011;28755;51.478;5.702;2022-12-15T15:38:52;46.58;;;27.23;;
43150;SDS011;28755;51.478;5.702;2022-12-15T15:41:19;46.20;;;27.38;;
43150;SDS011;28755;51.478;5.702;2022-12-15T15:43:50;49.60;;;26.90;;
43150;SDS011;28755;51.478;5.702;2022-12-15T15:46:23;46.20;;;26.42;;
43150;SDS011;28755;51.478;5.702;2022-12-15T15:48:52;46.97;;;26.75;;
43150;SDS011;28755;51.478;5.702;2022-12-15T15:51:18;42.92;;;26.42;;
43150;SDS011;28755;51.478;5.702;2022-12-15T15:53:45;44.75;;;27.30;;
43150;SDS011;28755;51.478;5.702;2022-12-15T15:56:12;47.00;;;27.77;;
43150;SDS011;28755;51.478;5.702;2022-12-15T15:58:40;339.83;;;35.30;;
43150;SDS011;28755;51.478;5.702;2022-12-15T16:01:07;60.47;;;27.27;;
43150;SDS011;28755;51.478;5.702;2022-12-15T16:03:33;75.03;;;28.23;;
43150;SDS011;28755;51.478;5.702;2022-12-15T16:06:00;48.95;;;26.55;;
43150;SDS011;28755;51.478;5.702;2022-12-15T16:08:27;47.67;;;26.77;;
43150;SDS011;28755;51.478;5.702;2022-12-15T16:10:57;53.75;;;28.35;;
43150;SDS011;28755;51.478;5.702;2022-12-15T16:13:23;52.72;;;28.17;;
43150;SDS011;28755;51.478;5.702;2022-12-15T16:15:48;49.25;;;29.10;;
43150;SDS011;28755;51.478;5.702;2022-12-15T16:18:14;51.47;;;30.52;;
43150;SDS011;28755;51.478;5.702;2022-12-15T16:20:41;53.40;;;30.10;;
43150;SDS011;28755;51.478;5.702;2022-12-15T16:23:12;50.47;;;30.77;;
43150;SDS011;28755;51.478;5.702;2022-12-15T16:25:41;55.35;;;31.40;;
43150;SDS011;28755;51.478;5.702;2022-12-15T16:28:12;55.15;;;32.40;;
43150;SDS011;28755;51.478;5.702;2022-12-15T16:30:42;50.92;;;30.90;;
43150;SDS011;28755;51.478;5.702;2022-12-15T16:33:08;51.53;;;30.08;;
43150;SDS011;28755;51.478;5.702;2022-12-15T16:35:35;55.55;;;29.85;;
43150;SDS011;28755;51.478;5.702;2022-12-15T16:38:04;49.40;;;29.73;;